createdAt,value
2018-03-07T00:02:08.790Z,23.47
2018-03-07T00:04:37.047Z,22.50
2018-03-07T00:07:04.512Z,25.33
2018-03-07T00:09:32.007Z,24.57
2018-03-07T00:11:59.486Z,25.20
2018-03-07T00:14:26.964Z,26.80
2018-03-07T00:16:54.423Z,26.93
2018-03-07T00:19:21.917Z,28.27
2018-03-07T00:21:50.146Z,28.33
2018-03-07T00:24:17.611Z,24.30
2018-03-07T00:26:45.147Z,23.17
2018-03-07T00:29:12.607Z,23.03
2018-03-07T00:31:40.066Z,24.53
2018-03-07T00:34:07.577Z,24.03
2018-03-07T00:36:35.806Z,23.50
2018-03-07T00:39:03.272Z,25.87
2018-03-07T00:41:30.766Z,24.60
2018-03-07T00:43:59.001Z,27.10
2018-03-07T00:46:26.471Z,23.60
2018-03-07T00:48:53.955Z,26.50
2018-03-07T00:51:22.199Z,29.00
2018-03-07T00:53:49.651Z,28.17
2018-03-07T00:56:17.143Z,27.93
2018-03-07T00:58:45.370Z,26.10
2018-03-07T01:01:12.877Z,26.40
2018-03-07T01:03:41.111Z,26.53
2018-03-07T01:06:08.574Z,27.33
2018-03-07T01:08:36.058Z,27.90
2018-03-07T01:11:04.294Z,26.10
2018-03-07T01:13:31.760Z,26.77
2018-03-07T01:15:59.254Z,26.37
2018-03-07T01:18:27.494Z,28.87
2018-03-07T01:20:54.949Z,29.20
2018-03-07T01:23:22.426Z,30.27
2018-03-07T01:25:50.659Z,29.70
2018-03-07T01:28:18.155Z,29.50
2018-03-07T01:30:45.723Z,29.93
2018-03-07T01:33:13.954Z,31.50
2018-03-07T01:35:41.426Z,32.77
2018-03-07T01:38:08.895Z,31.80
2018-03-07T01:40:36.359Z,34.00
2018-03-07T01:43:04.616Z,33.87
2018-03-07T01:45:32.084Z,37.00
2018-03-07T01:47:59.572Z,37.17
2018-03-07T01:50:27.826Z,33.87
2018-03-07T01:52:56.046Z,35.00
2018-03-07T01:55:23.510Z,30.40
2018-03-07T01:57:50.995Z,28.50
2018-03-07T02:00:18.459Z,31.30
2018-03-07T02:02:45.951Z,28.97
2018-03-07T02:05:13.418Z,28.70
2018-03-07T02:07:40.893Z,31.63
2018-03-07T02:10:08.369Z,32.30
2018-03-07T02:12:35.827Z,29.30
2018-03-07T02:15:03.287Z,25.30
2018-03-07T02:17:30.776Z,25.93
2018-03-07T02:19:59.001Z,27.67
2018-03-07T02:22:26.486Z,29.23
2018-03-07T02:24:53.952Z,22.93
2018-03-07T02:27:22.187Z,24.70
2018-03-07T02:29:49.662Z,26.57
2018-03-07T02:32:17.143Z,23.27
2018-03-07T02:34:44.611Z,26.70
2018-03-07T02:37:12.872Z,26.90
2018-03-07T02:39:41.104Z,26.20
2018-03-07T02:42:08.570Z,30.77
2018-03-07T02:44:36.063Z,34.40
2018-03-07T02:47:04.291Z,25.33
2018-03-07T02:49:31.769Z,25.57
2018-03-07T02:51:59.251Z,23.87
2018-03-07T02:54:27.624Z,23.17
2018-03-07T02:56:55.075Z,23.53
2018-03-07T02:59:23.367Z,25.07
2018-03-07T03:01:51.612Z,27.60
2018-03-07T03:04:19.065Z,26.87
2018-03-07T03:06:46.546Z,27.50
2018-03-07T03:09:14.775Z,27.13
2018-03-07T03:11:42.242Z,26.10
2018-03-07T03:14:09.727Z,30.23
2018-03-07T03:16:37.186Z,27.73
2018-03-07T03:19:05.434Z,28.60
2018-03-07T03:21:32.903Z,32.27
2018-03-07T03:24:00.368Z,36.90
2018-03-07T03:26:27.926Z,28.53
2018-03-07T03:28:55.395Z,30.43
2018-03-07T03:31:23.628Z,29.03
2018-03-07T03:33:51.119Z,29.93
2018-03-07T03:36:18.583Z,32.70
2018-03-07T03:38:46.814Z,28.83
2018-03-07T03:41:14.305Z,28.37
2018-03-07T03:43:41.865Z,32.80
2018-03-07T03:46:10.089Z,35.30
2018-03-07T03:48:37.577Z,33.37
2018-03-07T03:51:05.050Z,30.23
2018-03-07T03:53:32.510Z,29.07
2018-03-07T03:56:00.759Z,32.17
2018-03-07T03:58:28.226Z,30.60
2018-03-07T04:00:55.690Z,33.07
2018-03-07T04:03:23.174Z,34.80
2018-03-07T04:05:50.638Z,35.33
2018-03-07T04:08:18.117Z,26.15
2018-03-07T04:10:45.610Z,26.83
2018-03-07T04:13:14.575Z,27.00
2018-03-07T04:15:42.048Z,29.83
2018-03-07T04:18:09.541Z,29.27
2018-03-07T04:20:37.774Z,27.00
2018-03-07T04:23:05.258Z,30.65
2018-03-07T04:25:32.857Z,32.73
2018-03-07T04:28:01.090Z,36.78
2018-03-07T04:30:28.557Z,41.33
2018-03-07T04:32:56.804Z,41.83
2018-03-07T04:35:24.294Z,38.45
2018-03-07T04:37:52.523Z,40.15
2018-03-07T04:40:19.996Z,38.67
2018-03-07T04:42:47.457Z,41.07
2018-03-07T04:45:14.950Z,40.22
2018-03-07T04:47:42.414Z,39.72
2018-03-07T04:50:09.914Z,37.50
2018-03-07T04:52:37.414Z,34.83
2018-03-07T04:55:04.890Z,35.20
2018-03-07T04:57:32.383Z,32.40
2018-03-07T04:59:59.879Z,33.42
2018-03-07T05:02:28.114Z,31.87
2018-03-07T05:04:55.586Z,35.10
2018-03-07T05:07:23.083Z,34.22
2018-03-07T05:09:50.550Z,34.45
2018-03-07T05:12:18.030Z,34.13
2018-03-07T05:14:45.513Z,33.90
2018-03-07T05:17:12.990Z,37.47
2018-03-07T05:19:41.230Z,34.92
2018-03-07T05:22:08.730Z,33.33
2018-03-07T05:24:36.962Z,34.30
2018-03-07T05:27:04.463Z,31.67
2018-03-07T05:29:31.961Z,32.93
2018-03-07T05:31:59.430Z,31.67
2018-03-07T05:34:26.898Z,31.60
2018-03-07T05:36:54.382Z,32.03
2018-03-07T05:39:22.619Z,30.53
2018-03-07T05:41:50.113Z,30.53
2018-03-07T05:44:18.338Z,28.07
2018-03-07T05:46:45.805Z,29.00
2018-03-07T05:49:13.303Z,30.70
2018-03-07T05:51:41.542Z,28.33
2018-03-07T05:54:09.030Z,26.27
2018-03-07T05:56:36.503Z,28.60
2018-03-07T05:59:03.978Z,28.90
2018-03-07T06:01:31.448Z,28.33
2018-03-07T06:03:58.929Z,27.10
2018-03-07T06:06:26.394Z,30.10
2018-03-07T06:08:55.390Z,27.57
2018-03-07T06:11:22.879Z,26.47
2018-03-07T06:13:50.342Z,28.23
2018-03-07T06:16:17.810Z,27.20
2018-03-07T06:18:45.302Z,27.47
2018-03-07T06:21:12.754Z,29.87
2018-03-07T06:23:40.219Z,28.00
2018-03-07T06:26:07.702Z,27.73
2018-03-07T06:28:35.940Z,26.50
2018-03-07T06:31:03.434Z,25.90
2018-03-07T06:33:31.667Z,26.00
2018-03-07T06:35:59.153Z,25.03
2018-03-07T06:38:26.639Z,24.43
2018-03-07T06:40:54.872Z,24.40
2018-03-07T06:43:22.329Z,23.10
2018-03-07T06:45:49.940Z,24.50
2018-03-07T06:48:17.404Z,24.10
2018-03-07T06:50:44.879Z,26.20
2018-03-07T06:53:12.392Z,25.90
2018-03-07T06:55:40.623Z,23.43
2018-03-07T06:58:08.100Z,22.77
2018-03-07T07:00:35.597Z,23.20
2018-03-07T07:03:03.054Z,23.37
2018-03-07T07:05:30.530Z,25.27
2018-03-07T07:07:58.002Z,22.63
2018-03-07T07:10:25.471Z,23.20
2018-03-07T07:12:52.943Z,22.57
2018-03-07T07:15:20.416Z,24.17
2018-03-07T07:17:48.678Z,22.40
2018-03-07T07:20:16.143Z,19.60
2018-03-07T07:22:44.363Z,19.87
2018-03-07T07:25:11.874Z,18.03
2018-03-07T07:27:40.114Z,17.63
2018-03-07T07:30:07.588Z,17.20
2018-03-07T07:32:35.101Z,18.33
2018-03-07T07:35:02.562Z,16.23
2018-03-07T07:37:30.031Z,16.97
2018-03-07T07:39:57.536Z,15.20
2018-03-07T07:42:25.793Z,17.33
2018-03-07T07:44:53.255Z,16.83
2018-03-07T07:47:21.498Z,16.97
2018-03-07T07:49:48.958Z,19.40
2018-03-07T07:52:16.459Z,15.77
2018-03-07T07:54:44.698Z,14.90
2018-03-07T07:57:12.174Z,15.50
2018-03-07T07:59:39.675Z,14.77
2018-03-07T08:02:07.147Z,14.63
2018-03-07T08:04:34.610Z,15.53
2018-03-07T08:07:02.095Z,12.47
2018-03-07T08:09:29.601Z,15.00
2018-03-07T08:11:57.014Z,13.67
2018-03-07T08:14:24.510Z,13.63
2018-03-07T08:16:51.971Z,13.03
2018-03-07T08:19:19.433Z,13.60
2018-03-07T08:21:46.906Z,13.00
2018-03-07T08:24:14.367Z,13.07
2018-03-07T08:26:41.843Z,11.07
2018-03-07T08:29:09.321Z,11.77
2018-03-07T08:31:37.683Z,12.07
2018-03-07T08:34:05.176Z,13.07
2018-03-07T08:36:32.635Z,13.63
2018-03-07T08:39:00.110Z,14.30
2018-03-07T08:41:27.600Z,14.60
2018-03-07T08:43:55.072Z,15.50
2018-03-07T08:46:22.534Z,16.40
2018-03-07T08:48:50.783Z,16.37
2018-03-07T08:51:18.263Z,16.67
2018-03-07T08:53:46.495Z,16.20
2018-03-07T08:56:13.974Z,16.40
2018-03-07T08:58:41.446Z,14.83
2018-03-07T09:01:09.681Z,15.17
2018-03-07T09:03:37.169Z,13.97
2018-03-07T09:06:04.626Z,13.90
2018-03-07T09:08:32.096Z,13.57
2018-03-07T09:11:00.350Z,14.17
2018-03-07T09:13:27.820Z,13.10
2018-03-07T09:15:56.045Z,13.37
2018-03-07T09:18:23.532Z,12.33
2018-03-07T09:20:51.016Z,11.47
2018-03-07T09:23:18.478Z,12.50
2018-03-07T09:25:46.744Z,11.40
2018-03-07T09:28:14.218Z,12.13
2018-03-07T09:30:42.455Z,10.83
2018-03-07T09:33:09.942Z,11.27
2018-03-07T09:35:38.179Z,9.60
2018-03-07T09:38:05.635Z,10.33
2018-03-07T09:40:33.132Z,11.13
2018-03-07T09:43:00.591Z,10.47
2018-03-07T09:45:28.827Z,11.07
2018-03-07T09:47:56.325Z,11.40
2018-03-07T09:50:24.551Z,11.33
2018-03-07T09:52:52.011Z,12.10
2018-03-07T09:55:19.494Z,11.47
2018-03-07T09:57:46.978Z,12.40
2018-03-07T10:00:14.458Z,11.13
2018-03-07T10:02:41.964Z,11.40
2018-03-07T10:05:10.931Z,10.93
2018-03-07T10:07:38.400Z,12.07
2018-03-07T10:10:05.887Z,11.50
2018-03-07T10:12:34.131Z,11.50
2018-03-07T10:15:01.594Z,12.20
2018-03-07T10:17:29.273Z,12.00
2018-03-07T10:19:57.519Z,12.00
2018-03-07T10:22:24.973Z,10.07
2018-03-07T10:24:52.454Z,12.30
2018-03-07T10:27:19.916Z,12.50
2018-03-07T10:29:47.395Z,8.00
2018-03-07T10:32:14.851Z,8.90
2018-03-07T10:34:42.307Z,9.00
2018-03-07T10:37:09.796Z,10.00
2018-03-07T10:39:37.283Z,10.13
2018-03-07T10:42:04.800Z,10.23
2018-03-07T10:44:32.300Z,9.93
2018-03-07T10:46:59.771Z,9.67
2018-03-07T10:49:28.746Z,9.70
2018-03-07T10:51:56.214Z,10.57
2018-03-07T10:54:23.667Z,11.30
2018-03-07T10:56:51.142Z,12.50
2018-03-07T10:59:19.375Z,11.77
2018-03-07T11:01:46.847Z,11.67
2018-03-07T11:04:14.320Z,10.20
2018-03-07T11:06:42.542Z,10.63
2018-03-07T11:09:10.011Z,10.43
2018-03-07T11:11:37.499Z,11.57
2018-03-07T11:14:04.972Z,11.10
2018-03-07T11:16:33.203Z,11.40
2018-03-07T11:19:00.748Z,10.47
2018-03-07T11:21:28.932Z,11.37
2018-03-07T11:23:56.404Z,11.63
2018-03-07T11:26:23.903Z,10.60
2018-03-07T11:28:51.432Z,12.33
2018-03-07T11:31:18.899Z,11.10
2018-03-07T11:33:47.159Z,11.90
2018-03-07T11:36:14.627Z,11.97
2018-03-07T11:38:42.873Z,14.93
2018-03-07T11:41:10.343Z,14.40
2018-03-07T11:43:37.809Z,16.10
2018-03-07T11:46:06.994Z,15.30
2018-03-07T11:48:34.458Z,14.17
2018-03-07T11:51:01.926Z,15.70
2018-03-07T11:53:30.179Z,17.60
2018-03-07T11:55:57.665Z,17.40
2018-03-07T11:58:25.890Z,15.63
2018-03-07T12:00:53.376Z,16.60
2018-03-07T12:03:20.907Z,17.10
2018-03-07T12:05:48.373Z,16.50
2018-03-07T12:08:15.870Z,16.67
2018-03-07T12:10:44.103Z,14.30
2018-03-07T12:13:11.579Z,14.47
2018-03-07T12:15:39.082Z,14.03
2018-03-07T12:18:06.547Z,15.57
2018-03-07T12:20:34.024Z,15.47
2018-03-07T12:23:01.523Z,16.47
2018-03-07T12:25:29.768Z,14.97
2018-03-07T12:27:57.247Z,15.67
2018-03-07T12:30:24.706Z,17.07
2018-03-07T12:32:52.979Z,15.10
2018-03-07T12:35:20.419Z,16.73
2018-03-07T12:37:47.899Z,17.23
2018-03-07T12:40:16.140Z,16.40
2018-03-07T12:42:43.624Z,15.60
2018-03-07T12:45:11.855Z,15.53
2018-03-07T12:47:39.326Z,15.33
2018-03-07T12:50:06.811Z,14.80
2018-03-07T12:52:35.049Z,16.63
2018-03-07T12:55:02.513Z,15.57
2018-03-07T12:57:30.035Z,15.43
2018-03-07T12:59:57.491Z,15.57
2018-03-07T13:02:24.959Z,17.80
2018-03-07T13:04:52.450Z,17.80
2018-03-07T13:07:19.906Z,17.27
2018-03-07T13:09:47.370Z,17.07
2018-03-07T13:12:16.371Z,16.17
2018-03-07T13:14:43.830Z,19.40
2018-03-07T13:17:11.310Z,18.10
2018-03-07T13:19:39.564Z,17.10
2018-03-07T13:22:07.842Z,18.80
2018-03-07T13:24:36.094Z,15.47
2018-03-07T13:27:03.561Z,13.83
2018-03-07T13:29:31.010Z,13.70
2018-03-07T13:31:58.968Z,13.70
2018-03-07T13:34:26.434Z,14.73
2018-03-07T13:36:53.904Z,15.60
2018-03-07T13:39:21.374Z,13.93
2018-03-07T13:41:49.616Z,15.53
2018-03-07T13:44:17.082Z,15.13
2018-03-07T13:46:45.328Z,14.67
2018-03-07T13:49:12.781Z,16.13
2018-03-07T13:51:40.258Z,15.40
2018-03-07T13:54:07.752Z,15.30
2018-03-07T13:56:35.975Z,15.00
2018-03-07T13:59:03.447Z,14.50
2018-03-07T14:01:30.931Z,13.93
2018-03-07T14:03:58.400Z,14.60
2018-03-07T14:06:26.623Z,14.23
2018-03-07T14:08:54.105Z,12.27
2018-03-07T14:11:21.562Z,13.10
2018-03-07T14:13:49.790Z,12.80
2018-03-07T14:16:17.279Z,11.60
2018-03-07T14:18:44.742Z,13.70
2018-03-07T14:21:12.207Z,13.70
2018-03-07T14:23:39.694Z,13.30
2018-03-07T14:26:07.160Z,13.40
2018-03-07T14:28:34.613Z,13.30
2018-03-07T14:31:02.091Z,13.87
2018-03-07T14:33:29.595Z,13.60
2018-03-07T14:35:57.870Z,13.53
2018-03-07T14:38:25.350Z,13.47
2018-03-07T14:40:53.586Z,13.57
2018-03-07T14:43:21.076Z,13.37
2018-03-07T14:45:49.300Z,13.73
2018-03-07T14:48:16.786Z,13.63
2018-03-07T14:50:44.272Z,11.10
2018-03-07T14:53:12.510Z,10.93
2018-03-07T14:55:39.986Z,10.37
2018-03-07T14:58:08.233Z,10.17
2018-03-07T15:00:35.736Z,9.20
2018-03-07T15:03:03.216Z,8.63
2018-03-07T15:05:31.411Z,7.80
2018-03-07T15:07:58.886Z,9.07
2018-03-07T15:10:26.374Z,7.67
2018-03-07T15:12:54.611Z,8.00
2018-03-07T15:15:22.082Z,7.70
2018-03-07T15:17:49.559Z,7.43
2018-03-07T15:20:17.794Z,6.87
2018-03-07T15:22:45.247Z,5.97
2018-03-07T15:25:12.723Z,6.50
2018-03-07T15:27:40.204Z,6.10
2018-03-07T15:30:08.416Z,5.73
2018-03-07T15:32:35.899Z,5.40
2018-03-07T15:35:03.392Z,5.57
2018-03-07T15:37:30.816Z,6.10
2018-03-07T15:39:58.298Z,5.60
2018-03-07T15:42:26.533Z,6.43
2018-03-07T15:44:53.999Z,7.10
2018-03-07T15:47:21.465Z,5.60
2018-03-07T15:49:48.940Z,6.90
2018-03-07T15:52:17.176Z,6.50
2018-03-07T15:54:44.646Z,7.23
2018-03-07T15:57:12.116Z,6.50
2018-03-07T15:59:39.609Z,6.50
2018-03-07T16:02:07.117Z,7.43
2018-03-07T16:04:34.576Z,7.10
2018-03-07T16:07:02.860Z,7.57
2018-03-07T16:09:30.337Z,6.90
2018-03-07T16:11:58.576Z,6.70
2018-03-07T16:14:26.064Z,7.10
2018-03-07T16:16:54.326Z,6.23
2018-03-07T16:19:22.567Z,4.30
2018-03-07T16:21:50.042Z,3.50
2018-03-07T16:24:17.487Z,2.83
2018-03-07T16:26:44.961Z,3.27
2018-03-07T16:29:12.455Z,2.93
2018-03-07T16:31:39.911Z,3.70
2018-03-07T16:34:07.419Z,2.83
2018-03-07T16:36:34.863Z,2.73
2018-03-07T16:39:02.323Z,2.80
2018-03-07T16:41:29.796Z,2.87
2018-03-07T16:43:57.259Z,2.80
2018-03-07T16:46:24.719Z,2.90
2018-03-07T16:48:52.187Z,2.77
2018-03-07T16:51:20.415Z,2.80
2018-03-07T16:53:47.906Z,2.77
2018-03-07T16:56:15.384Z,3.20
2018-03-07T16:58:43.614Z,2.50
2018-03-07T17:01:11.098Z,3.13
2018-03-07T17:03:38.559Z,3.00
2018-03-07T17:06:06.785Z,3.00
2018-03-07T17:08:34.254Z,3.30
2018-03-07T17:11:01.740Z,3.30
2018-03-07T17:13:29.223Z,3.23
2018-03-07T17:15:56.683Z,2.93
2018-03-07T17:18:24.166Z,2.70
2018-03-07T17:20:51.655Z,2.90
2018-03-07T17:23:19.122Z,2.67
2018-03-07T17:25:46.570Z,2.90
2018-03-07T17:28:14.065Z,2.17
2018-03-07T17:30:42.287Z,2.30
2018-03-07T17:33:09.786Z,2.23
2018-03-07T17:35:38.027Z,1.90
2018-03-07T17:38:05.494Z,1.70
2018-03-07T17:40:33.014Z,2.30
2018-03-07T17:43:00.494Z,1.90
2018-03-07T17:45:28.628Z,2.30
2018-03-07T17:47:56.636Z,2.70
2018-03-07T17:50:24.115Z,2.80
2018-03-07T17:52:52.356Z,2.40
2018-03-07T17:55:20.466Z,2.67
2018-03-07T17:57:50.138Z,3.20
2018-03-07T18:00:17.612Z,2.73
2018-03-07T18:02:45.080Z,3.63
2018-03-07T18:05:12.604Z,3.17
2018-03-07T18:07:40.734Z,3.23
2018-03-07T18:10:08.959Z,4.03
2018-03-07T18:12:36.492Z,4.07
2018-03-07T18:15:03.960Z,3.30
2018-03-07T18:17:31.411Z,3.10
2018-03-07T18:19:58.897Z,4.00
2018-03-07T18:22:26.358Z,4.07
2018-03-07T18:24:53.836Z,4.87
2018-03-07T18:27:22.099Z,4.70
2018-03-07T18:29:49.618Z,4.13
2018-03-07T18:32:17.268Z,4.50
2018-03-07T18:34:44.750Z,4.57
2018-03-07T18:37:12.206Z,4.80
2018-03-07T18:39:39.698Z,4.83
2018-03-07T18:42:07.917Z,5.33
2018-03-07T18:44:35.386Z,5.60
2018-03-07T18:47:02.852Z,6.53
2018-03-07T18:49:30.334Z,6.17
2018-03-07T18:52:01.962Z,6.27
2018-03-07T18:54:29.424Z,7.00
2018-03-07T18:56:56.920Z,6.87
2018-03-07T18:59:25.182Z,6.50
2018-03-07T19:01:52.673Z,7.07
2018-03-07T19:04:21.123Z,6.60
2018-03-07T19:06:49.375Z,7.40
2018-03-07T19:09:16.845Z,7.43
2018-03-07T19:11:44.308Z,7.50
2018-03-07T19:14:12.559Z,7.90
2018-03-07T19:16:40.079Z,6.37
2018-03-07T19:19:07.557Z,7.03
2018-03-07T19:21:35.039Z,7.80
2018-03-07T19:24:02.576Z,8.20
2018-03-07T19:26:30.036Z,8.83
2018-03-07T19:28:57.496Z,9.50
2018-03-07T19:31:24.975Z,10.07
2018-03-07T19:33:52.472Z,10.77
2018-03-07T19:36:19.955Z,11.47
2018-03-07T19:38:47.447Z,11.90
2018-03-07T19:41:15.710Z,12.00
2018-03-07T19:43:44.681Z,11.83
2018-03-07T19:46:12.179Z,12.37
2018-03-07T19:48:40.422Z,13.97
2018-03-07T19:51:07.885Z,13.27
2018-03-07T19:53:35.388Z,12.33
2018-03-07T19:56:02.841Z,13.17
2018-03-07T19:58:30.321Z,14.93
2018-03-07T20:00:57.827Z,16.80
2018-03-07T20:03:25.293Z,17.50
2018-03-07T20:05:53.528Z,20.67
2018-03-07T20:08:21.028Z,18.83
2018-03-07T20:10:49.278Z,22.20
2018-03-07T20:13:16.752Z,20.03
2018-03-07T20:15:45.008Z,22.30
2018-03-07T20:18:12.503Z,23.67
2018-03-07T20:20:40.722Z,23.70
2018-03-07T20:23:08.227Z,23.67
2018-03-07T20:25:36.458Z,29.27
2018-03-07T20:28:03.923Z,26.10
2018-03-07T20:30:31.416Z,25.67
2018-03-07T20:32:59.723Z,25.37
2018-03-07T20:35:27.186Z,25.47
2018-03-07T20:37:54.678Z,22.77
2018-03-07T20:40:22.160Z,23.80
2018-03-07T20:42:50.397Z,21.97
2018-03-07T20:45:17.873Z,21.67
2018-03-07T20:47:45.343Z,18.93
2018-03-07T20:50:13.575Z,16.87
2018-03-07T20:52:41.075Z,17.00
2018-03-07T20:55:09.305Z,18.20
2018-03-07T20:57:36.813Z,17.30
2018-03-07T21:00:05.055Z,15.63
2018-03-07T21:02:32.519Z,14.57
2018-03-07T21:05:00.031Z,15.77
2018-03-07T21:07:27.499Z,14.70
2018-03-07T21:09:54.955Z,15.60
2018-03-07T21:12:22.442Z,15.73
2018-03-07T21:14:49.918Z,16.23
2018-03-07T21:17:18.151Z,17.23
2018-03-07T21:19:45.639Z,16.93
2018-03-07T21:22:13.104Z,17.03
2018-03-07T21:24:41.348Z,17.73
2018-03-07T21:27:08.846Z,18.00
2018-03-07T21:29:37.085Z,20.00
2018-03-07T21:32:04.551Z,18.10
2018-03-07T21:34:32.034Z,20.80
2018-03-07T21:37:00.264Z,20.93
2018-03-07T21:39:27.746Z,19.37
2018-03-07T21:41:55.240Z,22.13
2018-03-07T21:44:22.709Z,21.37
2018-03-07T21:46:50.171Z,24.10
2018-03-07T21:49:17.655Z,23.63
2018-03-07T21:51:45.111Z,26.13
2018-03-07T21:54:12.570Z,27.23
2018-03-07T21:56:40.067Z,27.00
2018-03-07T21:59:08.288Z,29.40
2018-03-07T22:01:35.764Z,31.20
2018-03-07T22:04:03.256Z,31.63
2018-03-07T22:06:30.722Z,31.93
2018-03-07T22:08:58.211Z,32.30
2018-03-07T22:11:25.706Z,33.17
2018-03-07T22:13:53.952Z,34.53
2018-03-07T22:16:21.420Z,33.33
2018-03-07T22:18:48.944Z,34.33
2018-03-07T22:21:16.414Z,35.90
2018-03-07T22:23:43.878Z,35.13
2018-03-07T22:26:11.367Z,36.03
2018-03-07T22:28:39.592Z,35.17
2018-03-07T22:31:07.094Z,36.57
2018-03-07T22:33:34.703Z,35.33
2018-03-07T22:36:02.165Z,33.90
2018-03-07T22:38:29.645Z,35.70
2018-03-07T22:40:57.122Z,36.77
2018-03-07T22:43:24.596Z,35.07
2018-03-07T22:45:52.814Z,37.17
2018-03-07T22:48:20.311Z,36.23
2018-03-07T22:50:47.866Z,39.03
2018-03-07T22:53:15.328Z,36.40
2018-03-07T22:55:42.831Z,39.30
2018-03-07T22:58:10.392Z,38.20
2018-03-07T23:00:43.640Z,38.77
2018-03-07T23:03:11.115Z,39.40
2018-03-07T23:05:39.351Z,39.80
2018-03-07T23:08:06.853Z,40.67
2018-03-07T23:10:35.070Z,42.97
2018-03-07T23:13:02.536Z,42.53
2018-03-07T23:15:30.025Z,43.93
2018-03-07T23:17:58.249Z,41.40
2018-03-07T23:20:25.729Z,42.77
2018-03-07T23:22:53.214Z,43.10
2018-03-07T23:25:21.434Z,44.30
2018-03-07T23:27:48.905Z,44.70
2018-03-07T23:30:16.394Z,47.07
2018-03-07T23:32:44.626Z,45.03
2018-03-07T23:35:12.174Z,46.73
2018-03-07T23:37:39.658Z,44.40
2018-03-07T23:40:07.122Z,46.20
2018-03-07T23:42:34.591Z,40.87
2018-03-07T23:45:02.847Z,42.60
2018-03-07T23:47:30.330Z,41.63
2018-03-07T23:49:57.794Z,42.40
2018-03-07T23:52:26.035Z,37.37
2018-03-07T23:54:53.502Z,40.47
2018-03-07T23:57:20.985Z,37.83
2018-03-07T23:59:49.215Z,36.10
